Time;durP1;ratioP1;P1;durP2;ratioP2;P2;SDS_P1;SDS_P2;PMS_P1;PMS_P2;Temp;Humidity;BMP_temperature;BMP_pressure;BME280_temperature;BME280_humidity;BME280_pressure;Samples;Min_cycle;Max_cycle;Signal;HPM_P1;HPM_P2
2024/01/31 00:00:28;;;;;;;2.90;2.00;;;;;18.90;102164.00;;;;2061080;28;20253;-59
2024/01/31 00:01:28;;;;;;;2.47;1.90;;;;;18.90;102172.00;;;;2060552;28;20853;-59
2024/01/31 00:02:29;;;;;;;2.43;1.70;;;;;18.60;102168.00;;;;2068360;28;20745;-58
2024/01/31 00:03:29;;;;;;;3.47;1.93;;;;;18.90;102171.00;;;;2058465;28;20245;-58
2024/01/31 00:04:29;;;;;;;3.50;2.00;;;;;18.90;102169.00;;;;2051073;28;20226;-58
2024/01/31 00:05:30;;;;;;;2.93;1.67;;;;;18.90;102167.00;;;;2058971;28;20227;-58
2024/01/31 00:06:30;;;;;;;3.30;2.10;;;;;18.90;102170.00;;;;2061022;28;20242;-58
2024/01/31 00:07:30;;;;;;;2.70;1.67;;;;;19.00;102174.00;;;;2062180;28;20214;-58
2024/01/31 00:08:31;;;;;;;3.00;1.80;;;;;18.90;102171.00;;;;2060105;28;20710;-58
2024/01/31 00:09:32;;;;;;;3.70;1.90;;;;;18.90;102165.00;;;;2050622;28;20308;-59
2024/01/31 00:10:32;;;;;;;2.83;2.00;;;;;19.00;102153.00;;;;2067732;28;20969;-59
2024/01/31 00:11:32;;;;;;;2.77;1.83;;;;;18.90;102167.00;;;;2060985;28;20242;-59
2024/01/31 00:12:33;;;;;;;3.17;1.70;;;;;18.90;102166.00;;;;2060113;28;20214;-58
2024/01/31 00:13:33;;;;;;;2.40;1.50;;;;;19.00;102162.00;;;;2061262;28;20653;-57
2024/01/31 00:14:35;;;;;;;3.60;1.90;;;;;18.90;102165.00;;;;2050361;28;20625;-58
2024/01/31 00:15:35;;;;;;;2.63;1.60;;;;;18.90;102161.00;;;;2050977;28;20739;-57
2024/01/31 00:16:35;;;;;;;2.53;1.70;;;;;18.90;102160.00;;;;2051991;28;20224;-58
2024/01/31 00:17:36;;;;;;;3.03;2.07;;;;;18.90;102163.00;;;;2060002;28;20221;-58
2024/01/31 00:18:36;;;;;;;2.10;1.40;;;;;18.90;102162.00;;;;2061212;28;20279;-58
2024/01/31 00:19:36;;;;;;;2.60;1.50;;;;;18.90;102169.00;;;;2050579;28;20219;-59
2024/01/31 00:20:37;;;;;;;2.63;1.73;;;;;18.90;102163.00;;;;2059776;28;20580;-62
2024/01/31 00:21:38;;;;;;;2.80;1.60;;;;;18.90;102169.00;;;;2060354;28;20211;-58
2024/01/31 00:22:38;;;;;;;2.75;1.63;;;;;18.90;102169.00;;;;2061207;28;20257;-59
2024/01/31 00:23:39;;;;;;;2.40;1.50;;;;;18.90;102173.00;;;;2060998;28;20234;-58
2024/01/31 00:24:39;;;;;;;3.10;1.93;;;;;18.90;102171.00;;;;2049646;28;20228;-58
2024/01/31 00:25:39;;;;;;;3.23;1.70;;;;;18.90;102183.00;;;;2060734;28;20219;-58
2024/01/31 00:26:40;;;;;;;2.83;1.63;;;;;18.90;102175.00;;;;2057349;28;20239;-58
2024/01/31 00:27:40;;;;;;;2.60;1.60;;;;;18.90;102181.00;;;;2060997;28;20245;-58
2024/01/31 00:28:40;;;;;;;2.83;1.53;;;;;18.90;102176.00;;;;2060500;28;20215;-58
2024/01/31 00:29:41;;;;;;;2.57;1.80;;;;;18.90;102175.00;;;;2051221;28;20218;-57
2024/01/31 00:30:41;;;;;;;3.03;1.70;;;;;18.90;102175.00;;;;2060569;28;20217;-58
2024/01/31 00:31:41;;;;;;;3.40;1.40;;;;;18.90;102179.00;;;;2064150;28;20206;-57
2024/01/31 00:32:42;;;;;;;3.63;1.93;;;;;18.90;102177.00;;;;2060971;28;20227;-59
2024/01/31 00:33:42;;;;;;;2.80;1.67;;;;;18.90;102186.00;;;;2057367;28;20218;-59
2024/01/31 00:34:42;;;;;;;3.00;1.60;;;;;18.90;102183.00;;;;2041304;28;20230;-59
2024/01/31 00:35:43;;;;;;;2.67;1.63;;;;;18.90;102183.00;;;;2050639;28;20230;-59
2024/01/31 00:36:43;;;;;;;2.73;1.63;;;;;18.90;102180.00;;;;2061022;28;20214;-59
2024/01/31 00:37:43;;;;;;;2.63;1.50;;;;;18.90;102186.00;;;;2061080;28;20277;-59
2024/01/31 00:38:44;;;;;;;2.60;1.60;;;;;18.90;102185.00;;;;2054962;28;20207;-59
2024/01/31 00:39:46;;;;;;;2.60;1.73;;;;;18.90;102180.00;;;;2057763;28;20307;-58
2024/01/31 00:40:47;;;;;;;2.53;1.80;;;;;18.90;102187.00;;;;2060173;28;20211;-58
2024/01/31 00:41:47;;;;;;;3.40;2.00;;;;;18.90;102188.00;;;;2060442;28;20646;-58
2024/01/31 00:42:48;;;;;;;2.70;1.53;;;;;18.90;102188.00;;;;2060107;28;20203;-58
2024/01/31 00:43:49;;;;;;;2.60;1.70;;;;;18.90;102180.00;;;;2051062;28;20199;-58
2024/01/31 00:44:49;;;;;;;2.80;1.55;;;;;18.90;102189.00;;;;2059107;28;20242;-58
2024/01/31 00:45:50;;;;;;;2.40;1.40;;;;;18.90;102184.00;;;;2055443;28;20661;-58
2024/01/31 00:46:50;;;;;;;2.80;1.80;;;;;18.90;102185.00;;;;2060849;28;20227;-58
2024/01/31 00:47:51;;;;;;;3.00;2.07;;;;;18.90;102184.00;;;;2058982;28;20230;-58
2024/01/31 00:48:51;;;;;;;2.30;1.60;;;;;18.90;102186.00;;;;2049063;28;20238;-58
2024/01/31 00:49:51;;;;;;;2.60;1.40;;;;;18.90;102176.00;;;;2060082;28;20215;-58
2024/01/31 00:50:52;;;;;;;2.60;1.70;;;;;18.90;102185.00;;;;2060799;28;20215;-58
2024/01/31 00:51:52;;;;;;;2.20;1.63;;;;;18.90;102185.00;;;;2059739;28;20281;-58
2024/01/31 00:52:52;;;;;;;3.37;2.10;;;;;18.90;102179.00;;;;2060809;28;20742;-58
2024/01/31 00:53:53;;;;;;;2.50;1.90;;;;;18.90;102183.00;;;;2051112;28;20749;-57
2024/01/31 00:54:53;;;;;;;2.60;1.70;;;;;18.90;102186.00;;;;2050107;28;20715;-58
2024/01/31 00:55:53;;;;;;;2.47;1.43;;;;;18.90;102188.00;;;;2052287;28;20294;-58
2024/01/31 00:56:54;;;;;;;2.67;1.53;;;;;18.90;102173.00;;;;2060244;28;20238;-59
2024/01/31 00:57:54;;;;;;;2.43;1.43;;;;;18.90;102177.00;;;;2061055;28;20211;-58
2024/01/31 00:58:54;;;;;;;2.60;1.70;;;;;18.90;102176.00;;;;2051141;28;20227;-58
2024/01/31 00:59:55;;;;;;;3.10;1.60;;;;;18.90;102176.00;;;;2065768;28;20302;-58
2024/01/31 01:00:55;;;;;;;3.03;1.60;;;;;18.90;102175.00;;;;2061978;28;20381;-58
2024/01/31 01:01:56;;;;;;;2.67;1.50;;;;;18.90;102181.00;;;;2061368;28;20223;-58
2024/01/31 01:02:56;;;;;;;3.43;1.80;;;;;18.90;102177.00;;;;2062400;28;20425;-58
2024/01/31 01:03:56;;;;;;;2.30;1.30;;;;;18.80;102172.00;;;;2052300;28;20238;-58
2024/01/31 01:04:57;;;;;;;3.00;1.90;;;;;18.90;102179.00;;;;2060112;28;20203;-58
2024/01/31 01:05:57;;;;;;;3.17;1.80;;;;;18.90;102183.00;;;;2062357;28;20215;-58
2024/01/31 01:06:57;;;;;;;3.30;1.70;;;;;18.90;102185.00;;;;2060312;28;20260;-58
2024/01/31 01:07:59;;;;;;;3.93;1.80;;;;;18.90;102181.00;;;;2061032;28;20203;-59
2024/01/31 01:08:59;;;;;;;3.30;1.85;;;;;18.90;102179.00;;;;2051972;28;20209;-59
2024/01/31 01:09:59;;;;;;;3.70;1.67;;;;;18.90;102185.00;;;;2053274;28;20230;-58
2024/01/31 01:11:00;;;;;;;3.13;1.97;;;;;18.90;102187.00;;;;2053765;28;20215;-59
2024/01/31 01:12:01;;;;;;;2.17;1.53;;;;;18.90;102229.00;;;;2057867;28;20265;-58
2024/01/31 01:13:02;;;;;;;2.80;1.70;;;;;18.90;102191.00;;;;2061930;28;20230;-59
2024/01/31 01:14:02;;;;;;;3.20;1.67;;;;;18.90;102190.00;;;;2050492;28;20299;-58
2024/01/31 01:15:03;;;;;;;2.60;1.50;;;;;18.90;102187.00;;;;2060472;28;20214;-59
2024/01/31 01:16:04;;;;;;;2.80;1.90;;;;;18.90;102190.00;;;;2062332;28;20675;-59
2024/01/31 01:17:04;;;;;;;2.13;1.30;;;;;18.90;102197.00;;;;2061733;28;20219;-58
2024/01/31 01:18:05;;;;;;;3.10;1.60;;;;;18.90;102193.00;;;;2062256;28;20215;-58
2024/01/31 01:19:05;;;;;;;2.80;1.50;;;;;18.90;102195.00;;;;2050584;28;20258;-58
2024/01/31 01:20:08;;;;;;;2.40;1.50;;;;;18.90;102192.00;;;;2061845;28;20218;-59
2024/01/31 01:21:08;;;;;;;2.42;1.42;;;;;18.90;102191.00;;;;2062209;28;20222;-59
2024/01/31 01:22:09;;;;;;;5.57;2.10;;;;;18.90;102191.00;;;;2061139;28;20230;-58
2024/01/31 01:23:09;;;;;;;2.50;1.47;;;;;18.90;102191.00;;;;2062319;28;20261;-59
2024/01/31 01:24:09;;;;;;;2.60;1.60;;;;;18.90;102195.00;;;;2051613;28;20227;-58
2024/01/31 01:25:10;;;;;;;2.67;1.80;;;;;18.90;102193.00;;;;2060931;28;20231;-58
2024/01/31 01:26:11;;;;;;;3.17;1.87;;;;;18.90;102199.00;;;;2061343;28;20321;-59
2024/01/31 01:27:12;;;;;;;2.80;1.58;;;;;18.90;102203.00;;;;2062226;28;20219;-58
2024/01/31 01:28:12;;;;;;;2.80;1.73;;;;;18.90;102197.00;;;;2062274;28;20211;-58
2024/01/31 01:29:12;;;;;;;2.20;1.60;;;;;18.90;102207.00;;;;2051201;28;20228;-59
2024/01/31 01:30:13;;;;;;;3.53;1.80;;;;;18.90;102202.00;;;;2061624;28;20219;-58
2024/01/31 01:31:13;;;;;;;2.60;1.33;;;;;18.90;102203.00;;;;2059259;28;20230;-58
2024/01/31 01:32:14;;;;;;;2.50;1.43;;;;;18.90;102003.00;;;;2061812;28;20227;-58
2024/01/31 01:33:14;;;;;;;2.83;1.40;;;;;18.90;102211.00;;;;2060648;28;20223;-58
2024/01/31 01:34:14;;;;;;;2.50;1.40;;;;;18.90;102203.00;;;;2050007;28;20222;-58
2024/01/31 01:35:15;;;;;;;2.40;1.50;;;;;18.90;102201.00;;;;2060586;28;20223;-58
2024/01/31 01:36:15;;;;;;;3.40;1.90;;;;;18.90;102204.00;;;;2061674;28;20280;-58
2024/01/31 01:37:16;;;;;;;2.43;1.53;;;;;18.90;102193.00;;;;2062075;28;20246;-59
2024/01/31 01:38:16;;;;;;;2.90;1.70;;;;;18.90;102198.00;;;;2061571;28;21637;-58
2024/01/31 01:39:16;;;;;;;3.80;1.97;;;;;18.90;102200.00;;;;2050047;28;20695;-58
2024/01/31 01:40:17;;;;;;;2.47;1.30;;;;;18.80;102194.00;;;;2062012;28;20774;-58
2024/01/31 01:41:17;;;;;;;2.60;1.60;;;;;18.90;102204.00;;;;2061072;28;20242;-58
2024/01/31 01:42:18;;;;;;;2.53;1.30;;;;;18.90;102201.00;;;;2059874;28;20239;-58
2024/01/31 01:43:18;;;;;;;3.50;1.70;;;;;18.90;102204.00;;;;2057068;28;20933;-59
2024/01/31 01:44:19;;;;;;;3.47;1.90;;;;;18.90;102205.00;;;;2049887;28;20730;-59
2024/01/31 01:45:19;;;;;;;2.30;1.60;;;;;18.90;102209.00;;;;2059332;28;20823;-59
2024/01/31 01:46:22;;;;;;;3.17;1.70;;;;;18.90;102021.00;;;;2052318;28;20309;-57
2024/01/31 01:47:24;;;;;;;2.85;1.70;;;;;18.90;102219.00;;;;2061420;28;20242;-58
2024/01/31 01:48:24;;;;;;;2.47;1.45;;;;;18.90;102217.00;;;;2061380;28;20306;-58
2024/01/31 01:49:24;;;;;;;2.80;1.60;;;;;18.90;102206.00;;;;2052230;28;20229;-57
2024/01/31 01:50:25;;;;;;;2.57;1.53;;;;;18.90;102217.00;;;;2057367;28;20243;-58
2024/01/31 01:51:25;;;;;;;3.13;1.40;;;;;18.90;102213.00;;;;2054443;28;20211;-58
2024/01/31 01:52:26;;;;;;;2.67;1.53;;;;;18.80;102222.00;;;;2050878;28;20255;-59
2024/01/31 01:53:26;;;;;;;2.20;1.23;;;;;18.90;102215.00;;;;2050344;28;20222;-59
2024/01/31 01:54:26;;;;;;;3.93;1.60;;;;;18.90;102217.00;;;;2042210;28;20236;-59
2024/01/31 01:55:26;;;;;;;2.90;2.07;;;;;18.80;102221.00;;;;2051705;28;20234;-58
2024/01/31 01:56:27;;;;;;;2.43;1.40;;;;;18.90;102219.00;;;;2052183;28;20219;-59
2024/01/31 01:57:27;;;;;;;3.30;1.80;;;;;18.80;102221.00;;;;2043171;28;20212;-59
2024/01/31 01:58:27;;;;;;;2.97;1.87;;;;;18.80;102221.00;;;;2052911;28;20216;-58
2024/01/31 01:59:28;;;;;;;2.80;1.90;;;;;18.90;102222.00;;;;2051601;28;20261;-58
2024/01/31 02:00:28;;;;;;;2.67;1.57;;;;;18.90;102226.00;;;;2058622;28;20598;-58
2024/01/31 02:01:28;;;;;;;2.77;1.67;;;;;18.90;102222.00;;;;2052883;28;21014;-59
2024/01/31 02:02:29;;;;;;;2.77;1.60;;;;;18.90;102236.00;;;;2035915;29;20701;-59
2024/01/31 02:03:29;;;;;;;2.23;1.20;;;;;18.90;102227.00;;;;2044097;29;20220;-57
2024/01/31 02:04:30;;;;;;;2.73;1.80;;;;;18.90;102236.00;;;;2034333;28;20259;-58
2024/01/31 02:05:31;;;;;;;2.70;1.73;;;;;18.90;102224.00;;;;2050565;28;20219;-58
2024/01/31 02:06:32;;;;;;;2.55;1.50;;;;;18.80;102220.00;;;;2060956;28;20226;-58
2024/01/31 02:07:32;;;;;;;3.20;1.77;;;;;18.80;102222.00;;;;2062023;28;20214;-57
2024/01/31 02:08:33;;;;;;;4.10;1.57;;;;;18.80;102222.00;;;;2061806;28;20223;-58
2024/01/31 02:09:33;;;;;;;2.80;1.70;;;;;18.80;102226.00;;;;2044724;28;20230;-57
2024/01/31 02:10:34;;;;;;;2.67;1.40;;;;;18.80;102217.00;;;;2061154;28;20219;-58
2024/01/31 02:11:34;;;;;;;2.67;1.50;;;;;18.80;102217.00;;;;2058695;28;20227;-58
2024/01/31 02:12:59;;;;;;;3.40;1.67;;;;;18.80;102227.00;;;;2061589;28;20221;-58
2024/01/31 02:13:59;;;;;;;4.15;1.42;;;;;18.80;102233.00;;;;2039881;28;20211;-58
2024/01/31 02:15:00;;;;;;;3.47;1.70;;;;;18.80;102230.00;;;;2059844;28;20297;-57
2024/01/31 02:16:00;;;;;;;3.47;1.60;;;;;18.80;102222.00;;;;2060658;28;20210;-58
2024/01/31 02:17:00;;;;;;;2.40;1.20;;;;;18.80;102216.00;;;;2061568;28;20206;-57
2024/01/31 02:18:01;;;;;;;3.53;1.67;;;;;18.80;102223.00;;;;2060913;28;20207;-58
2024/01/31 02:19:01;;;;;;;3.60;2.00;;;;;18.80;102225.00;;;;2050031;28;20203;-58
2024/01/31 02:20:02;;;;;;;3.60;1.60;;;;;18.80;102216.00;;;;2061827;28;20257;-58
2024/01/31 02:21:03;;;;;;;2.60;1.50;;;;;18.80;102227.00;;;;2059826;28;20286;-57
2024/01/31 02:22:03;;;;;;;2.73;1.80;;;;;18.80;102232.00;;;;2061281;28;20564;-59
2024/01/31 02:23:04;;;;;;;2.27;1.40;;;;;18.80;102232.00;;;;2052081;28;20584;-58
2024/01/31 02:24:04;;;;;;;2.90;1.63;;;;;18.80;102227.00;;;;2043333;28;20814;-58
2024/01/31 02:25:11;;;;;;;2.60;1.90;;;;;18.80;102225.00;;;;2060269;28;20251;-58
2024/01/31 02:26:11;;;;;;;2.67;1.50;;;;;18.80;102218.00;;;;2058616;28;20237;-58
2024/01/31 02:27:12;;;;;;;3.07;1.60;;;;;18.80;102216.00;;;;2061744;28;20222;-58
2024/01/31 02:28:12;;;;;;;2.33;1.50;;;;;18.80;102228.00;;;;2056261;28;20242;-58
2024/01/31 02:29:12;;;;;;;2.50;1.40;;;;;18.80;102221.00;;;;2048877;28;20226;-58
2024/01/31 02:30:13;;;;;;;2.70;1.50;;;;;18.80;102222.00;;;;2057964;28;20218;-58
2024/01/31 02:31:13;;;;;;;3.20;1.40;;;;;18.80;102227.00;;;;2061687;28;20219;-58
2024/01/31 02:32:14;;;;;;;2.30;1.30;;;;;18.80;102223.00;;;;2059345;28;20711;-57
2024/01/31 02:33:14;;;;;;;2.77;1.33;;;;;18.80;102224.00;;;;2059024;28;20226;-58
2024/01/31 02:34:14;;;;;;;3.03;1.77;;;;;18.80;102223.00;;;;2051781;28;20310;-58
2024/01/31 02:35:15;;;;;;;2.70;1.60;;;;;18.80;102228.00;;;;2062618;28;20272;-58
2024/01/31 02:36:15;;;;;;;3.60;1.57;;;;;18.80;102228.00;;;;2062292;28;20223;-58
2024/01/31 02:37:15;;;;;;;2.83;1.60;;;;;18.80;102233.00;;;;2060651;28;20226;-58
2024/01/31 02:38:16;;;;;;;2.20;1.30;;;;;18.80;102229.00;;;;2059548;28;20621;-58
2024/01/31 02:39:16;;;;;;;2.40;1.70;;;;;18.80;102232.00;;;;2050675;28;21134;-61
2024/01/31 02:40:16;;;;;;;2.13;1.30;;;;;18.80;102231.00;;;;2060434;28;20750;-60
2024/01/31 02:41:17;;;;;;;3.30;1.70;;;;;18.80;102226.00;;;;2061375;28;20750;-58
2024/01/31 02:42:18;;;;;;;3.03;1.77;;;;;18.80;102227.00;;;;2060656;28;20222;-58
2024/01/31 02:43:18;;;;;;;2.92;1.65;;;;;18.80;102225.00;;;;2060251;28;20781;-59
2024/01/31 02:44:19;;;;;;;2.40;1.60;;;;;18.80;102222.00;;;;2050284;28;20313;-58
2024/01/31 02:45:19;;;;;;;3.13;1.67;;;;;18.80;102223.00;;;;2049805;28;21110;-58
2024/01/31 02:46:19;;;;;;;3.17;1.50;;;;;18.80;102218.00;;;;2052817;28;20263;-57
2024/01/31 02:47:20;;;;;;;4.53;1.57;;;;;18.80;102228.00;;;;2060904;28;20226;-58
2024/01/31 02:48:20;;;;;;;2.97;1.53;;;;;18.80;102225.00;;;;2061692;28;20234;-58
2024/01/31 02:49:20;;;;;;;2.30;1.40;;;;;18.80;102219.00;;;;2053555;28;20241;-58
2024/01/31 02:50:21;;;;;;;3.00;1.43;;;;;18.80;102224.00;;;;2063026;28;20230;-58
2024/01/31 02:51:21;;;;;;;3.60;1.63;;;;;18.80;102227.00;;;;2051916;28;20719;-58
2024/01/31 02:52:21;;;;;;;2.27;1.20;;;;;18.80;102224.00;;;;2049059;28;20222;-58
2024/01/31 02:53:22;;;;;;;2.43;1.37;;;;;18.80;102221.00;;;;2061625;28;20222;-58
2024/01/31 02:54:22;;;;;;;4.83;1.60;;;;;18.80;102227.00;;;;2050573;28;20243;-58
2024/01/31 02:55:22;;;;;;;3.70;1.70;;;;;18.80;102219.00;;;;2059404;28;20729;-58
2024/01/31 02:56:23;;;;;;;3.00;1.47;;;;;18.80;102225.00;;;;2058384;28;20268;-58
2024/01/31 02:57:23;;;;;;;2.80;1.43;;;;;18.80;102230.00;;;;2061409;28;20218;-58
2024/01/31 02:58:23;;;;;;;3.63;1.50;;;;;18.80;102229.00;;;;2060667;28;20293;-58
2024/01/31 02:59:24;;;;;;;3.30;1.70;;;;;18.80;102220.00;;;;2051026;28;20233;-58
2024/01/31 03:00:24;;;;;;;2.87;1.50;;;;;18.80;102223.00;;;;2060884;28;20215;-59
2024/01/31 03:01:25;;;;;;;5.20;1.60;;;;;18.80;102224.00;;;;2063230;28;20219;-58
2024/01/31 03:02:25;;;;;;;2.80;1.50;;;;;18.80;102228.00;;;;2063032;28;20310;-58
2024/01/31 03:03:25;;;;;;;4.10;1.33;;;;;18.80;102216.00;;;;2061557;28;20270;-58
2024/01/31 03:04:25;;;;;;;2.80;1.57;;;;;18.80;102213.00;;;;2050824;28;20277;-58
2024/01/31 03:05:26;;;;;;;2.63;1.40;;;;;18.80;102217.00;;;;2058072;28;20238;-59
2024/01/31 03:06:26;;;;;;;3.40;1.90;;;;;18.80;102219.00;;;;2061025;28;20231;-58
2024/01/31 03:07:26;;;;;;;2.70;1.47;;;;;18.80;102218.00;;;;2056142;28;20223;-59
2024/01/31 03:08:27;;;;;;;4.53;1.47;;;;;18.80;102216.00;;;;2059925;28;20219;-58
2024/01/31 03:09:27;;;;;;;3.70;1.60;;;;;18.80;102219.00;;;;2051860;28;20226;-58
2024/01/31 03:10:28;;;;;;;2.90;1.60;;;;;18.80;102225.00;;;;2061972;28;20234;-58
2024/01/31 03:11:28;;;;;;;2.73;1.30;;;;;18.80;102220.00;;;;2061173;28;20218;-58
2024/01/31 03:12:28;;;;;;;3.00;1.37;;;;;18.80;102216.00;;;;2059919;28;20225;-58
2024/01/31 03:13:29;;;;;;;2.90;1.43;;;;;18.80;102227.00;;;;2061168;28;20227;-58
2024/01/31 03:14:29;;;;;;;3.20;1.50;;;;;18.80;102220.00;;;;2053807;28;20305;-57
2024/01/31 03:15:29;;;;;;;4.13;1.70;;;;;18.80;102229.00;;;;2060509;28;20262;-58
2024/01/31 03:16:30;;;;;;;2.73;1.43;;;;;18.80;102229.00;;;;2056912;28;20247;-58
2024/01/31 03:17:35;;;;;;;2.20;1.40;;;;;18.80;102230.00;;;;2061437;28;20277;-58
2024/01/31 03:18:35;;;;;;;3.55;1.55;;;;;18.80;102233.00;;;;2061041;28;20277;-58
2024/01/31 03:19:37;;;;;;;2.20;1.07;;;;;18.80;102220.00;;;;2050340;28;20222;-59
2024/01/31 03:20:37;;;;;;;3.47;1.63;;;;;18.80;102231.00;;;;2058679;28;20223;-58
2024/01/31 03:21:38;;;;;;;2.30;1.20;;;;;18.80;102231.00;;;;2060349;28;20405;-59
2024/01/31 03:22:38;;;;;;;3.33;1.40;;;;;18.80;102231.00;;;;2060942;28;20222;-58
2024/01/31 03:23:39;;;;;;;2.40;1.50;;;;;18.80;102227.00;;;;2060954;28;20226;-58
2024/01/31 03:24:39;;;;;;;3.80;1.67;;;;;18.80;102245.00;;;;2050179;28;20809;-58
2024/01/31 03:25:39;;;;;;;3.10;1.60;;;;;18.80;102219.00;;;;2060887;28;20678;-57
2024/01/31 03:26:40;;;;;;;2.60;1.30;;;;;18.80;102218.00;;;;2060891;28;20659;-58
2024/01/31 03:27:40;;;;;;;2.40;1.30;;;;;18.80;102215.00;;;;2061319;28;20219;-58
2024/01/31 03:28:40;;;;;;;3.00;1.20;;;;;18.80;102216.00;;;;2055703;28;20220;-58
2024/01/31 03:29:41;;;;;;;3.40;1.30;;;;;18.80;102226.00;;;;2050665;28;20262;-58
2024/01/31 03:30:41;;;;;;;2.50;1.40;;;;;18.80;102225.00;;;;2060087;28;20223;-58
2024/01/31 03:31:41;;;;;;;3.10;1.37;;;;;18.80;102230.00;;;;2061071;28;20219;-58
2024/01/31 03:32:42;;;;;;;2.63;1.50;;;;;18.80;102232.00;;;;2060880;28;20215;-59
2024/01/31 03:33:42;;;;;;;2.60;1.43;;;;;18.80;102236.00;;;;2054022;28;20219;-58
2024/01/31 03:34:43;;;;;;;2.57;1.20;;;;;18.80;102231.00;;;;2049362;28;20210;-58
2024/01/31 03:35:43;;;;;;;2.17;1.17;;;;;18.80;102229.00;;;;2062893;28;20313;-58
2024/01/31 03:36:43;;;;;;;2.07;1.20;;;;;18.70;102236.00;;;;2061341;28;20214;-59
2024/01/31 03:37:44;;;;;;;2.13;1.10;;;;;18.80;102240.00;;;;2060445;28;20218;-58
2024/01/31 03:38:44;;;;;;;2.00;1.03;;;;;18.80;102234.00;;;;2056692;28;20671;-59
2024/01/31 03:39:44;;;;;;;3.07;1.20;;;;;18.80;102230.00;;;;2056862;28;20211;-58
2024/01/31 03:40:45;;;;;;;2.47;1.33;;;;;18.80;102237.00;;;;2060842;28;20214;-58
2024/01/31 03:41:45;;;;;;;2.70;1.20;;;;;18.80;102242.00;;;;2061186;28;20309;-58
2024/01/31 03:42:45;;;;;;;2.20;1.00;;;;;18.80;102229.00;;;;2059092;28;20242;-59
2024/01/31 03:43:46;;;;;;;2.40;1.30;;;;;18.70;102234.00;;;;2047653;28;20222;-58
2024/01/31 03:44:46;;;;;;;2.20;1.13;;;;;18.80;102247.00;;;;2055773;28;20250;-58
2024/01/31 03:45:47;;;;;;;2.60;1.20;;;;;18.80;102235.00;;;;2060506;28;20223;-58
2024/01/31 03:46:47;;;;;;;2.10;1.13;;;;;18.80;102244.00;;;;2061149;28;20627;-58
2024/01/31 03:47:47;;;;;;;3.70;1.80;;;;;18.80;102236.00;;;;2060685;28;20592;-58
2024/01/31 03:48:48;;;;;;;2.30;0.93;;;;;18.70;102245.00;;;;2042857;28;20931;-58
2024/01/31 03:49:49;;;;;;;3.13;1.23;;;;;18.80;102256.00;;;;2051469;28;20215;-58
2024/01/31 03:50:49;;;;;;;3.08;1.58;;;;;18.80;102245.00;;;;2059602;28;20227;-59
2024/01/31 03:51:50;;;;;;;1.87;1.00;;;;;18.80;102246.00;;;;2055574;28;20219;-59
2024/01/31 03:52:50;;;;;;;2.57;1.23;;;;;18.80;102239.00;;;;2060890;28;20219;-58
2024/01/31 03:53:50;;;;;;;2.53;1.47;;;;;18.70;102238.00;;;;2050902;28;20221;-58
2024/01/31 03:54:51;;;;;;;2.73;1.20;;;;;18.70;102249.00;;;;2058815;28;20219;-59
2024/01/31 03:55:51;;;;;;;1.90;1.00;;;;;18.80;102233.00;;;;2059956;28;20285;-58
2024/01/31 03:56:52;;;;;;;2.20;1.00;;;;;18.80;102231.00;;;;2060444;28;20211;-58
2024/01/31 03:57:52;;;;;;;2.00;0.90;;;;;18.80;102236.00;;;;2060941;28;20249;-57
2024/01/31 03:58:52;;;;;;;2.90;1.10;;;;;18.80;102235.00;;;;2050582;28;20211;-59
2024/01/31 03:59:53;;;;;;;2.00;1.10;;;;;18.80;102229.00;;;;2061096;28;20268;-57
2024/01/31 04:00:53;;;;;;;2.30;1.20;;;;;18.80;102225.00;;;;2061104;28;20218;-58
2024/01/31 04:01:53;;;;;;;2.43;1.10;;;;;18.80;102228.00;;;;2054721;28;20246;-58
2024/01/31 04:02:54;;;;;;;2.83;1.20;;;;;18.70;102221.00;;;;2052316;28;20207;-58
2024/01/31 04:03:54;;;;;;;3.83;1.47;;;;;18.80;102214.00;;;;2050787;28;20206;-58
2024/01/31 04:04:54;;;;;;;2.80;1.37;;;;;18.80;102218.00;;;;2058769;28;20214;-58
2024/01/31 04:05:55;;;;;;;2.10;1.00;;;;;18.80;102213.00;;;;2060567;28;20210;-58
2024/01/31 04:06:55;;;;;;;2.50;1.17;;;;;18.70;102222.00;;;;2060770;28;20203;-58
2024/01/31 04:07:57;;;;;;;3.30;1.40;;;;;18.70;102215.00;;;;2060961;28;20815;-58
2024/01/31 04:08:57;;;;;;;2.88;1.17;;;;;18.70;102213.00;;;;2051121;28;20199;-58
2024/01/31 04:09:58;;;;;;;2.40;1.20;;;;;18.80;102208.00;;;;2060038;28;20199;-58
2024/01/31 04:10:58;;;;;;;2.40;1.20;;;;;18.70;102208.00;;;;2060989;28;20218;-58
2024/01/31 04:11:59;;;;;;;3.33;1.13;;;;;18.70;102197.00;;;;2060189;28;20211;-58
2024/01/31 04:12:59;;;;;;;2.85;1.10;;;;;18.80;102196.00;;;;2051910;28;20203;-59
2024/01/31 04:14:03;;;;;;;1.80;0.90;;;;;18.80;102199.00;;;;2042324;28;20216;-58
2024/01/31 04:15:04;;;;;;;2.33;1.20;;;;;18.70;102200.00;;;;2059735;28;20258;-58
2024/01/31 04:16:04;;;;;;;2.53;1.00;;;;;18.70;102191.00;;;;2060944;28;20199;-58
2024/01/31 04:17:05;;;;;;;2.97;1.70;;;;;18.70;102194.00;;;;2060264;28;21102;-58
2024/01/31 04:18:07;;;;;;;2.80;1.20;;;;;18.70;102201.00;;;;2061001;28;20469;-58
2024/01/31 04:19:07;;;;;;;2.20;0.93;;;;;18.70;102203.00;;;;2041773;28;20227;-58
2024/01/31 04:20:08;;;;;;;2.40;1.03;;;;;18.70;102214.00;;;;2052679;28;20295;-58
2024/01/31 04:21:09;;;;;;;3.17;1.13;;;;;18.70;102205.00;;;;2060600;28;20210;-58
2024/01/31 04:22:09;;;;;;;2.27;1.33;;;;;18.70;102193.00;;;;2060603;28;20517;-58
2024/01/31 04:23:09;;;;;;;2.00;0.90;;;;;18.70;102199.00;;;;2060832;28;20237;-58
2024/01/31 04:24:10;;;;;;;3.77;1.47;;;;;18.70;102191.00;;;;2050654;28;20325;-58
2024/01/31 04:25:10;;;;;;;2.47;0.97;;;;;18.70;102182.00;;;;2059157;28;20277;-57
2024/01/31 04:26:10;;;;;;;1.87;0.87;;;;;18.00;102190.00;;;;2060450;28;20709;-57
2024/01/31 04:27:11;;;;;;;2.37;0.90;;;;;18.70;102197.00;;;;2060703;28;20226;-58
2024/01/31 04:28:13;;;;;;;2.20;1.10;;;;;18.70;102195.00;;;;2052304;28;20694;-58
2024/01/31 04:29:13;;;;;;;2.53;1.10;;;;;18.70;102205.00;;;;2042159;28;20220;-58
2024/01/31 04:30:13;;;;;;;2.17;1.13;;;;;18.70;102204.00;;;;2061132;28;20314;-58
2024/01/31 04:31:14;;;;;;;2.10;1.17;;;;;18.70;102206.00;;;;2060599;28;21011;-58
2024/01/31 04:32:14;;;;;;;2.40;0.77;;;;;18.70;102198.00;;;;2061053;28;20747;-58
2024/01/31 04:33:15;;;;;;;2.00;1.00;;;;;18.70;102202.00;;;;2059894;28;20257;-58
2024/01/31 04:34:15;;;;;;;2.47;1.00;;;;;18.70;102200.00;;;;2051814;28;20226;-58
2024/01/31 04:35:15;;;;;;;2.00;1.10;;;;;18.70;102197.00;;;;2061011;28;20234;-58
2024/01/31 04:36:16;;;;;;;1.83;0.80;;;;;18.70;102196.00;;;;2062139;28;20308;-57
2024/01/31 04:37:16;;;;;;;2.27;1.00;;;;;18.70;102206.00;;;;2062502;28;20226;-58
2024/01/31 04:38:16;;;;;;;2.90;1.00;;;;;18.70;102209.00;;;;2053327;28;20257;-58
2024/01/31 04:39:17;;;;;;;2.60;1.00;;;;;18.70;102207.00;;;;2044167;28;20303;-58
2024/01/31 04:40:17;;;;;;;1.97;0.93;;;;;18.70;102210.00;;;;2061092;28;20211;-58
2024/01/31 04:41:18;;;;;;;2.10;0.90;;;;;18.70;102206.00;;;;2062306;28;20219;-58
2024/01/31 04:42:18;;;;;;;1.93;1.10;;;;;18.70;102211.00;;;;2062264;28;20237;-58
2024/01/31 04:43:18;;;;;;;2.40;1.00;;;;;18.80;102205.00;;;;2061657;28;20222;-58
2024/01/31 04:44:19;;;;;;;2.43;0.90;;;;;18.70;102196.00;;;;2052349;28;20353;-58
2024/01/31 04:45:19;;;;;;;2.87;0.90;;;;;18.70;102206.00;;;;2051716;28;20223;-58
2024/01/31 04:46:19;;;;;;;2.97;1.17;;;;;18.70;102202.00;;;;2053917;28;20246;-58
2024/01/31 04:47:21;;;;;;;1.80;0.80;;;;;18.70;102206.00;;;;2053290;28;20250;-58
2024/01/31 04:48:21;;;;;;;2.40;1.25;;;;;18.70;102201.00;;;;2053885;28;20365;-60
2024/01/31 04:49:22;;;;;;;2.20;1.00;;;;;18.70;102202.00;;;;2052760;28;20222;-58
2024/01/31 04:50:22;;;;;;;2.53;1.23;;;;;18.70;102202.00;;;;2062064;28;20715;-58
2024/01/31 04:51:22;;;;;;;2.27;1.07;;;;;18.70;102198.00;;;;2062440;28;20221;-58
2024/01/31 04:52:23;;;;;;;2.20;1.10;;;;;18.70;102205.00;;;;2061682;28;20219;-58
2024/01/31 04:53:23;;;;;;;1.93;0.90;;;;;18.70;102205.00;;;;2062191;28;20219;-58
2024/01/31 04:54:23;;;;;;;2.33;0.90;;;;;18.70;102200.00;;;;2051894;28;20225;-58
2024/01/31 04:55:24;;;;;;;1.90;0.73;;;;;18.70;102200.00;;;;2061065;28;20218;-58
2024/01/31 04:56:24;;;;;;;2.47;1.17;;;;;18.70;102199.00;;;;2062090;28;20215;-58
2024/01/31 04:57:25;;;;;;;2.43;0.70;;;;;18.70;102193.00;;;;2062080;28;20285;-58
2024/01/31 04:58:25;;;;;;;2.50;0.90;;;;;18.70;102202.00;;;;2053729;28;20290;-58
2024/01/31 04:59:25;;;;;;;2.13;0.90;;;;;18.70;102202.00;;;;2047959;28;20712;-58